Barlow, North Dakota
Current Conditions -  °F | °C
As of 6:15 AM on Friday 28 Nov 2014 (Local Time) from K46D Reporting Station
Light Snow Light Snow  
Wind Chill: -10°   Ceiling: 400
Heat Index:   Visibility: 10mi
Dew Point:   Wind: 14mph
Humidity: 100%   Direction: 120°ESE
Pressure: 29.87"   Gusts: NA
Location:  47.4573°N, 99.0752°W
Report Text: K46D 281215Z AUTO 12012KT 10SM -SN BKN004 OVC021 M14/M14 A2987 RMK AO2
Loading
Personal Weather Stations






























Interactive Weather Map New forecast layout! Learn more

10-Day Weather Forecast

Advertisements
Track Severe Weather on mobile